createdAt,value
2017-08-21T00:00:24.958Z,1011.2
2017-08-21T00:01:26.356Z,1011.2
2017-08-21T00:02:31.810Z,1011.2
2017-08-21T00:03:32.271Z,1011.2
2017-08-21T00:04:33.668Z,1011.2
2017-08-21T00:05:35.063Z,1011.2
2017-08-21T00:06:36.472Z,1011.2
2017-08-21T00:07:37.855Z,1011.2
2017-08-21T00:08:39.257Z,1011.3
2017-08-21T00:09:43.811Z,1011.3
2017-08-21T00:10:44.403Z,1011.3
2017-08-21T00:11:45.799Z,1011.4
2017-08-21T00:12:47.195Z,1011.4
2017-08-21T00:13:48.590Z,1011.5
2017-08-21T00:14:49.995Z,1011.5
2017-08-21T00:15:51.387Z,1011.5
2017-08-21T00:16:55.011Z,1011.5
2017-08-21T00:17:56.407Z,1011.4
2017-08-21T00:18:57.807Z,1011.3
2017-08-21T00:19:59.202Z,1011.3
2017-08-21T00:21:00.595Z,1011.3
2017-08-21T00:22:01.992Z,1011.3
2017-08-21T00:23:03.389Z,1011.3
2017-08-21T00:24:07.817Z,1011.3
2017-08-21T00:25:08.405Z,1011.3
2017-08-21T00:26:09.804Z,1011.3
2017-08-21T00:27:11.199Z,1011.3
2017-08-21T00:28:12.594Z,1011.2
2017-08-21T00:29:13.992Z,1011.2
2017-08-21T00:30:15.388Z,1011.3
2017-08-21T00:31:19.874Z,1011.3
2017-08-21T00:32:21.268Z,1011.3
2017-08-21T00:33:22.667Z,1011.4
2017-08-21T00:34:24.062Z,1011.4
2017-08-21T00:35:25.458Z,1011.4
2017-08-21T00:36:26.856Z,1011.4
2017-08-21T00:37:28.251Z,1011.5
2017-08-21T00:38:31.989Z,1011.4
2017-08-21T00:39:33.387Z,1011.4
2017-08-21T00:40:34.786Z,1011.4
2017-08-21T00:41:36.179Z,1011.4
2017-08-21T00:42:37.576Z,1011.4
2017-08-21T00:43:38.971Z,1011.4
2017-08-21T00:44:40.366Z,1011.3
2017-08-21T00:45:43.954Z,1011.3
2017-08-21T00:46:45.354Z,1011.3
2017-08-21T00:47:46.751Z,1011.3
2017-08-21T00:48:48.145Z,1011.3
2017-08-21T00:49:49.537Z,1011.3
2017-08-21T00:50:50.936Z,1011.3
2017-08-21T00:51:52.330Z,1011.3
2017-08-21T00:52:53.728Z,1011.3
2017-08-21T00:53:55.128Z,1011.2
2017-08-21T00:54:56.525Z,1011.1
2017-08-21T00:55:57.924Z,1011.1
2017-08-21T00:56:59.315Z,1011.1
2017-08-21T00:58:00.713Z,1011.1
2017-08-21T00:59:02.109Z,1011.1
2017-08-21T01:00:05.040Z,1011.1
2017-08-21T01:01:06.440Z,1011.2
2017-08-21T01:02:07.833Z,1011.2
2017-08-21T01:03:09.227Z,1011.2
2017-08-21T01:04:10.621Z,1011.2
2017-08-21T01:05:12.016Z,1011.2
2017-08-21T01:06:13.415Z,1011.2
2017-08-21T01:07:14.812Z,1011.2
2017-08-21T01:08:16.214Z,1011.2
2017-08-21T01:09:17.611Z,1011.2
2017-08-21T01:10:19.006Z,1011.2
2017-08-21T01:11:20.404Z,1011.2
2017-08-21T01:12:21.798Z,1011.2
2017-08-21T01:13:23.197Z,1011.2
2017-08-21T01:14:24.592Z,1011.2
2017-08-21T01:15:25.993Z,1011.2
2017-08-21T01:16:27.392Z,1011.2
2017-08-21T01:17:28.785Z,1011.2
2017-08-21T01:18:30.227Z,1011.2
2017-08-21T01:19:31.622Z,1011.1
2017-08-21T01:20:33.695Z,1011.1
2017-08-21T01:21:35.095Z,1011.2
2017-08-21T01:22:36.492Z,1011.2
2017-08-21T01:23:37.891Z,1011.2
2017-08-21T01:24:39.286Z,1011.1
2017-08-21T01:25:40.682Z,1011.1
2017-08-21T01:26:42.080Z,1011.1
2017-08-21T01:27:45.012Z,1011.1
2017-08-21T01:28:46.407Z,1011.1
2017-08-21T01:29:47.804Z,1011.1
2017-08-21T01:30:49.204Z,1011.1
2017-08-21T01:31:50.598Z,1011.1
2017-08-21T01:32:51.993Z,1011.1
2017-08-21T01:33:53.391Z,1011.1
2017-08-21T01:34:54.786Z,1011.1
2017-08-21T01:35:56.182Z,1011.1
2017-08-21T01:36:57.583Z,1011.1
2017-08-21T01:37:58.984Z,1011.1
2017-08-21T01:39:00.374Z,1011.1
2017-08-21T01:40:01.768Z,1011.1
2017-08-21T01:41:03.164Z,1011.1
2017-08-21T01:42:06.034Z,1011.1
2017-08-21T01:43:07.429Z,1011.1
2017-08-21T01:44:08.829Z,1011.1
2017-08-21T01:45:10.228Z,1011.1
2017-08-21T01:46:11.623Z,1011.0
2017-08-21T01:47:13.019Z,1011.0
2017-08-21T01:48:14.420Z,1011.0
2017-08-21T01:49:17.305Z,1011.0
2017-08-21T01:50:18.703Z,1011.0
2017-08-21T01:51:20.102Z,1011.0
2017-08-21T01:52:21.502Z,1010.9
2017-08-21T01:53:22.895Z,1010.9
2017-08-21T01:54:24.292Z,1010.9
2017-08-21T01:55:25.690Z,1011.0
2017-08-21T01:56:27.084Z,1011.0
2017-08-21T01:57:28.479Z,1010.9
2017-08-21T01:58:29.891Z,1010.9
2017-08-21T01:59:31.280Z,1010.8
2017-08-21T02:00:32.672Z,1010.8
2017-08-21T02:01:34.072Z,1010.9
2017-08-21T02:02:35.463Z,1010.9
2017-08-21T02:03:36.866Z,1010.9
2017-08-21T02:04:38.257Z,1010.9
2017-08-21T02:05:39.655Z,1010.9
2017-08-21T02:06:41.053Z,1010.8
2017-08-21T02:07:42.449Z,1010.8
2017-08-21T02:08:43.842Z,1010.8
2017-08-21T02:09:45.241Z,1010.8
2017-08-21T02:10:46.632Z,1010.8
2017-08-21T02:11:48.032Z,1010.8
2017-08-21T02:12:49.436Z,1010.9
2017-08-21T02:13:50.834Z,1010.8
2017-08-21T02:14:52.240Z,1010.8
2017-08-21T02:15:53.639Z,1010.9
2017-08-21T02:16:55.035Z,1010.9
2017-08-21T02:17:56.429Z,1010.9
2017-08-21T02:18:57.826Z,1010.9
2017-08-21T02:19:59.226Z,1010.9
2017-08-21T02:21:00.626Z,1010.9
2017-08-21T02:22:02.018Z,1010.8
2017-08-21T02:23:03.414Z,1010.8
2017-08-21T02:24:04.811Z,1010.9
2017-08-21T02:25:06.208Z,1010.8
2017-08-21T02:26:07.601Z,1010.9
2017-08-21T02:27:09.004Z,1010.9
2017-08-21T02:28:10.400Z,1010.9
2017-08-21T02:29:11.796Z,1010.9
2017-08-21T02:30:13.190Z,1010.9
2017-08-21T02:31:14.585Z,1010.9
2017-08-21T02:32:15.982Z,1010.9
2017-08-21T02:33:17.379Z,1010.8
2017-08-21T02:34:18.778Z,1010.8
2017-08-21T02:35:20.173Z,1010.8
2017-08-21T02:36:21.570Z,1010.8
2017-08-21T02:37:22.965Z,1010.8
2017-08-21T02:38:24.367Z,1010.8
2017-08-21T02:39:25.770Z,1010.8
2017-08-21T02:40:27.153Z,1010.8
2017-08-21T02:41:28.552Z,1010.8
2017-08-21T02:42:29.950Z,1010.8
2017-08-21T02:43:31.348Z,1010.8
2017-08-21T02:44:32.740Z,1010.8
2017-08-21T02:45:34.960Z,1010.8
2017-08-21T02:46:36.356Z,1010.9
2017-08-21T02:47:37.752Z,1010.8
2017-08-21T02:48:39.150Z,1010.8
2017-08-21T02:49:40.547Z,1010.9
2017-08-21T02:50:41.941Z,1010.8
2017-08-21T02:51:43.337Z,1010.8
2017-08-21T02:52:44.734Z,1010.8
2017-08-21T02:53:46.133Z,1010.8
2017-08-21T02:54:47.528Z,1010.8
2017-08-21T02:55:48.926Z,1010.8
2017-08-21T02:56:50.321Z,1010.8
2017-08-21T02:57:51.710Z,1010.8
2017-08-21T02:58:53.111Z,1010.9
2017-08-21T02:59:54.509Z,1010.8
2017-08-21T03:00:55.903Z,1010.8
2017-08-21T03:01:57.303Z,1010.9
2017-08-21T03:02:58.698Z,1010.8
2017-08-21T03:04:00.098Z,1010.8
2017-08-21T03:05:01.493Z,1010.9
2017-08-21T03:06:02.884Z,1010.9
2017-08-21T03:07:04.282Z,1010.9
2017-08-21T03:08:05.677Z,1010.9
2017-08-21T03:09:07.077Z,1010.9
2017-08-21T03:10:08.474Z,1010.9
2017-08-21T03:11:09.869Z,1011.0
2017-08-21T03:12:11.263Z,1011.0
2017-08-21T03:13:12.657Z,1011.0
2017-08-21T03:14:14.054Z,1011.0
2017-08-21T03:15:15.448Z,1011.0
2017-08-21T03:16:16.844Z,1011.0
2017-08-21T03:17:18.242Z,1010.9
2017-08-21T03:18:19.638Z,1010.9
2017-08-21T03:19:21.033Z,1011.0
2017-08-21T03:20:22.430Z,1010.9
2017-08-21T03:21:23.825Z,1010.9
2017-08-21T03:22:25.222Z,1010.9
2017-08-21T03:23:26.617Z,1010.9
2017-08-21T03:24:28.018Z,1010.9
2017-08-21T03:25:29.415Z,1010.8
2017-08-21T03:26:30.812Z,1010.9
2017-08-21T03:27:32.207Z,1010.9
2017-08-21T03:28:33.600Z,1010.9
2017-08-21T03:29:34.996Z,1010.9
2017-08-21T03:30:36.393Z,1010.9
2017-08-21T03:31:37.790Z,1010.9
2017-08-21T03:32:39.187Z,1010.8
2017-08-21T03:33:40.583Z,1010.9
2017-08-21T03:34:41.975Z,1010.8
2017-08-21T03:35:43.368Z,1010.8
2017-08-21T03:36:44.766Z,1010.8
2017-08-21T03:37:46.162Z,1010.9
2017-08-21T03:38:47.559Z,1010.9
2017-08-21T03:39:48.953Z,1010.8
2017-08-21T03:40:50.350Z,1010.8
2017-08-21T03:41:51.745Z,1010.9
2017-08-21T03:42:53.140Z,1010.9
2017-08-21T03:43:54.536Z,1010.9
2017-08-21T03:44:55.931Z,1010.9
2017-08-21T03:45:57.331Z,1010.9
2017-08-21T03:46:58.729Z,1010.9
2017-08-21T03:48:00.123Z,1010.9
2017-08-21T03:49:01.520Z,1010.9
2017-08-21T03:50:02.916Z,1010.9
2017-08-21T03:51:04.312Z,1010.9
2017-08-21T03:52:05.711Z,1010.9
2017-08-21T03:53:07.107Z,1010.9
2017-08-21T03:54:08.507Z,1010.9
2017-08-21T03:55:09.935Z,1010.9
2017-08-21T03:56:11.326Z,1010.9
2017-08-21T03:57:12.722Z,1010.9
2017-08-21T03:58:14.118Z,1010.9
2017-08-21T03:59:15.512Z,1010.9
2017-08-21T04:00:16.911Z,1010.8
2017-08-21T04:01:18.306Z,1010.8
2017-08-21T04:02:19.702Z,1010.9
2017-08-21T04:03:21.097Z,1010.9
2017-08-21T04:04:22.491Z,1010.9
2017-08-21T04:05:23.886Z,1010.9
2017-08-21T04:06:25.282Z,1010.9
2017-08-21T04:07:26.680Z,1010.9
2017-08-21T04:08:28.077Z,1010.9
2017-08-21T04:09:29.469Z,1010.9
2017-08-21T04:10:30.864Z,1011.0
2017-08-21T04:11:32.282Z,1011.0
2017-08-21T04:12:33.664Z,1011.0
2017-08-21T04:13:35.052Z,1011.0
2017-08-21T04:14:36.452Z,1010.9
2017-08-21T04:15:37.849Z,1010.9
2017-08-21T04:16:39.246Z,1011.0
2017-08-21T04:17:40.641Z,1010.9
2017-08-21T04:18:42.040Z,1010.9
2017-08-21T04:19:43.434Z,1010.9
2017-08-21T04:20:44.832Z,1010.9
2017-08-21T04:21:46.229Z,1010.9
2017-08-21T04:22:47.633Z,1010.9
2017-08-21T04:23:49.022Z,1010.9
2017-08-21T04:24:50.417Z,1010.9
2017-08-21T04:25:51.815Z,1010.9
2017-08-21T04:26:53.209Z,1010.9
2017-08-21T04:27:54.607Z,1010.9
2017-08-21T04:28:56.004Z,1011.0
2017-08-21T04:29:58.545Z,1011.0
2017-08-21T04:30:59.940Z,1011.0
2017-08-21T04:32:01.339Z,1011.0
2017-08-21T04:33:02.732Z,1011.0
2017-08-21T04:34:04.127Z,1010.9
2017-08-21T04:35:05.524Z,1010.9
2017-08-21T04:36:06.921Z,1011.0
2017-08-21T04:37:08.320Z,1011.0
2017-08-21T04:38:09.734Z,1011.0
2017-08-21T04:39:11.127Z,1011.0
2017-08-21T04:40:12.527Z,1011.0
2017-08-21T04:41:13.925Z,1011.0
2017-08-21T04:42:15.321Z,1011.0
2017-08-21T04:43:16.722Z,1011.0
2017-08-21T04:44:18.120Z,1011.0
2017-08-21T04:45:19.519Z,1011.0
2017-08-21T04:46:20.914Z,1011.0
2017-08-21T04:47:22.311Z,1011.1
2017-08-21T04:48:23.711Z,1011.1
2017-08-21T04:49:25.110Z,1011.1
2017-08-21T04:50:26.510Z,1011.1
2017-08-21T04:51:27.911Z,1011.1
2017-08-21T04:52:29.306Z,1011.1
2017-08-21T04:53:30.703Z,1011.1
2017-08-21T04:54:32.102Z,1011.1
2017-08-21T04:55:33.500Z,1011.1
2017-08-21T04:56:34.899Z,1011.1
2017-08-21T04:57:36.298Z,1011.2
2017-08-21T04:58:37.699Z,1011.2
2017-08-21T04:59:39.099Z,1011.2
2017-08-21T05:00:40.494Z,1011.2
2017-08-21T05:01:41.895Z,1011.2
2017-08-21T05:02:43.293Z,1011.2
2017-08-21T05:03:44.692Z,1011.1
2017-08-21T05:04:46.093Z,1011.1
2017-08-21T05:05:47.495Z,1011.1
2017-08-21T05:06:48.894Z,1011.1
2017-08-21T05:07:50.292Z,1011.1
2017-08-21T05:08:51.693Z,1011.1
2017-08-21T05:09:53.093Z,1011.1
2017-08-21T05:10:54.490Z,1011.2
2017-08-21T05:11:55.899Z,1011.2
2017-08-21T05:12:57.299Z,1011.2
2017-08-21T05:13:58.696Z,1011.2
2017-08-21T05:15:00.814Z,1011.2
2017-08-21T05:16:02.212Z,1011.2
2017-08-21T05:17:03.613Z,1011.1
2017-08-21T05:18:05.006Z,1011.2
2017-08-21T05:19:06.406Z,1011.2
2017-08-21T05:20:07.809Z,1011.2
2017-08-21T05:21:09.206Z,1011.2
2017-08-21T05:22:10.604Z,1011.2
2017-08-21T05:23:12.001Z,1011.2
2017-08-21T05:24:13.399Z,1011.2
2017-08-21T05:25:14.797Z,1011.2
2017-08-21T05:26:16.196Z,1011.2
2017-08-21T05:27:17.596Z,1011.2
2017-08-21T05:28:19.039Z,1011.2
2017-08-21T05:29:20.438Z,1011.2
2017-08-21T05:30:21.833Z,1011.1
2017-08-21T05:31:23.230Z,1011.1
2017-08-21T05:32:24.631Z,1011.1
2017-08-21T05:33:26.032Z,1011.1
2017-08-21T05:34:27.434Z,1011.1
2017-08-21T05:35:28.831Z,1011.1
2017-08-21T05:36:30.229Z,1011.1
2017-08-21T05:37:31.629Z,1011.1
2017-08-21T05:38:33.024Z,1011.1
2017-08-21T05:39:34.427Z,1011.1
2017-08-21T05:40:35.828Z,1011.1
2017-08-21T05:41:37.228Z,1011.2
2017-08-21T05:42:38.627Z,1011.2
2017-08-21T05:43:40.025Z,1011.1
2017-08-21T05:44:41.427Z,1011.2
2017-08-21T05:45:42.828Z,1011.2
2017-08-21T05:46:44.226Z,1011.2
2017-08-21T05:47:45.626Z,1011.2
2017-08-21T05:48:47.029Z,1011.2
2017-08-21T05:49:48.428Z,1011.2
2017-08-21T05:50:49.826Z,1011.2
2017-08-21T05:51:51.224Z,1011.2
2017-08-21T05:52:52.621Z,1011.2
2017-08-21T05:53:54.024Z,1011.2
2017-08-21T05:54:55.423Z,1011.3
2017-08-21T05:55:56.825Z,1011.3
2017-08-21T05:56:58.221Z,1011.3
2017-08-21T05:57:59.707Z,1011.3
2017-08-21T05:59:01.108Z,1011.3
2017-08-21T06:00:02.504Z,1011.2
2017-08-21T06:01:03.906Z,1011.3
2017-08-21T06:02:05.308Z,1011.3
2017-08-21T06:03:06.706Z,1011.3
2017-08-21T06:04:08.106Z,1011.3
2017-08-21T06:05:09.463Z,1011.3
2017-08-21T06:06:10.866Z,1011.3
2017-08-21T06:07:12.265Z,1011.3
2017-08-21T06:08:13.676Z,1011.3
2017-08-21T06:09:15.078Z,1011.3
2017-08-21T06:10:16.479Z,1011.2
2017-08-21T06:11:17.878Z,1011.3
2017-08-21T06:12:19.276Z,1011.3
2017-08-21T06:13:20.675Z,1011.3
2017-08-21T06:14:22.072Z,1011.3
2017-08-21T06:15:23.473Z,1011.3
2017-08-21T06:16:24.875Z,1011.3
2017-08-21T06:17:26.277Z,1011.3
2017-08-21T06:18:27.676Z,1011.4
2017-08-21T06:19:29.078Z,1011.4
2017-08-21T06:20:30.477Z,1011.4
2017-08-21T06:21:31.879Z,1011.4
2017-08-21T06:22:33.283Z,1011.4
2017-08-21T06:23:34.684Z,1011.3
2017-08-21T06:24:36.084Z,1011.3
2017-08-21T06:25:37.488Z,1011.3
2017-08-21T06:26:38.888Z,1011.3
2017-08-21T06:27:40.289Z,1011.3
2017-08-21T06:28:41.693Z,1011.3
2017-08-21T06:29:43.093Z,1011.4
2017-08-21T06:30:44.494Z,1011.4
2017-08-21T06:31:45.896Z,1011.4
2017-08-21T06:32:47.297Z,1011.3
2017-08-21T06:33:48.698Z,1011.3
2017-08-21T06:34:50.098Z,1011.4
2017-08-21T06:35:51.503Z,1011.4
2017-08-21T06:36:52.902Z,1011.4
2017-08-21T06:37:54.307Z,1011.4
2017-08-21T06:38:55.708Z,1011.4
2017-08-21T06:39:57.105Z,1011.4
2017-08-21T06:40:58.506Z,1011.4
2017-08-21T06:41:59.904Z,1011.4
2017-08-21T06:43:01.304Z,1011.4
2017-08-21T06:44:02.726Z,1011.4
2017-08-21T06:45:04.121Z,1011.4
2017-08-21T06:46:05.523Z,1011.4
2017-08-21T06:47:06.923Z,1011.4
2017-08-21T06:48:08.320Z,1011.4
2017-08-21T06:49:09.722Z,1011.4
2017-08-21T06:50:11.119Z,1011.5
2017-08-21T06:51:12.524Z,1011.4
2017-08-21T06:52:13.924Z,1011.4
2017-08-21T06:53:15.331Z,1011.4
2017-08-21T06:54:16.744Z,1011.4
2017-08-21T06:55:18.142Z,1011.4
2017-08-21T06:56:19.541Z,1011.5
2017-08-21T06:57:20.943Z,1011.5
2017-08-21T06:58:22.345Z,1011.4
2017-08-21T06:59:23.749Z,1011.5
2017-08-21T07:00:25.153Z,1011.4
2017-08-21T07:01:26.549Z,1011.4
2017-08-21T07:02:27.951Z,1011.5
2017-08-21T07:03:29.351Z,1011.5
2017-08-21T07:04:30.750Z,1011.5
2017-08-21T07:05:32.153Z,1011.5
2017-08-21T07:06:33.556Z,1011.5
2017-08-21T07:07:34.962Z,1011.5
2017-08-21T07:08:36.360Z,1011.4
2017-08-21T07:09:37.763Z,1011.5
2017-08-21T07:10:39.162Z,1011.4
2017-08-21T07:11:40.561Z,1011.5
2017-08-21T07:12:41.965Z,1011.4
2017-08-21T07:13:43.365Z,1011.4
2017-08-21T07:14:44.769Z,1011.5
2017-08-21T07:15:46.175Z,1011.5
2017-08-21T07:16:47.569Z,1011.5
2017-08-21T07:17:48.968Z,1011.5
2017-08-21T07:18:50.368Z,1011.5
2017-08-21T07:19:51.772Z,1011.4
2017-08-21T07:20:53.178Z,1011.4
2017-08-21T07:21:54.582Z,1011.5
2017-08-21T07:22:55.984Z,1011.4
2017-08-21T07:23:57.385Z,1011.5
2017-08-21T07:24:58.786Z,1011.5
2017-08-21T07:26:00.191Z,1011.5
2017-08-21T07:27:01.590Z,1011.5
2017-08-21T07:28:02.990Z,1011.5
2017-08-21T07:29:04.395Z,1011.5
2017-08-21T07:30:05.795Z,1011.5
2017-08-21T07:31:07.195Z,1011.5
2017-08-21T07:32:08.598Z,1011.4
2017-08-21T07:33:10.001Z,1011.5
2017-08-21T07:34:11.404Z,1011.5
2017-08-21T07:35:12.808Z,1011.5
2017-08-21T07:36:14.213Z,1011.5
2017-08-21T07:37:15.615Z,1011.5
2017-08-21T07:38:17.015Z,1011.5
2017-08-21T07:39:18.418Z,1011.5
2017-08-21T07:40:19.820Z,1011.5
2017-08-21T07:41:21.222Z,1011.5
2017-08-21T07:42:22.624Z,1011.5
2017-08-21T07:43:24.040Z,1011.6
2017-08-21T07:44:25.442Z,1011.6
2017-08-21T07:45:26.844Z,1011.6
2017-08-21T07:46:28.249Z,1011.6
2017-08-21T07:47:29.657Z,1011.6
2017-08-21T07:48:31.058Z,1011.6
2017-08-21T07:49:32.467Z,1011.5
2017-08-21T07:50:33.869Z,1011.5
2017-08-21T07:51:35.273Z,1011.5
2017-08-21T07:52:36.674Z,1011.5
2017-08-21T07:53:38.079Z,1011.6
2017-08-21T07:54:39.481Z,1011.6
2017-08-21T07:55:40.887Z,1011.6
2017-08-21T07:56:42.290Z,1011.6
2017-08-21T07:57:43.695Z,1011.6
2017-08-21T07:58:45.099Z,1011.6
2017-08-21T07:59:46.505Z,1011.6
2017-08-21T08:00:47.902Z,1011.6
2017-08-21T08:01:49.303Z,1011.6
2017-08-21T08:02:50.706Z,1011.6
2017-08-21T08:03:52.109Z,1011.6
2017-08-21T08:04:53.512Z,1011.6
2017-08-21T08:05:54.915Z,1011.6
2017-08-21T08:06:56.319Z,1011.6
2017-08-21T08:07:57.720Z,1011.5
2017-08-21T08:08:59.120Z,1011.6
2017-08-21T08:10:00.525Z,1011.5
2017-08-21T08:11:01.930Z,1011.6
2017-08-21T08:12:03.332Z,1011.6
2017-08-21T08:13:05.978Z,1011.5
2017-08-21T08:14:07.382Z,1011.6
2017-08-21T08:15:08.785Z,1011.6
2017-08-21T08:16:10.188Z,1011.6
2017-08-21T08:17:11.591Z,1011.6
2017-08-21T08:18:12.994Z,1011.6
2017-08-21T08:19:14.398Z,1011.6
2017-08-21T08:20:15.801Z,1011.6
2017-08-21T08:21:17.324Z,1011.6
2017-08-21T08:22:18.726Z,1011.6
2017-08-21T08:23:20.132Z,1011.7
2017-08-21T08:24:21.583Z,1011.6
2017-08-21T08:25:22.990Z,1011.7
2017-08-21T08:26:24.393Z,1011.7
2017-08-21T08:27:25.796Z,1011.7
2017-08-21T08:28:27.196Z,1011.7
2017-08-21T08:29:28.601Z,1011.7
2017-08-21T08:30:30.003Z,1011.7
2017-08-21T08:31:31.408Z,1011.7
2017-08-21T08:32:32.813Z,1011.8
2017-08-21T08:33:34.223Z,1011.8
2017-08-21T08:34:35.627Z,1011.7
2017-08-21T08:35:37.029Z,1011.7
2017-08-21T08:36:38.431Z,1011.8
2017-08-21T08:37:39.836Z,1011.8
2017-08-21T08:38:41.243Z,1011.7
2017-08-21T08:39:42.648Z,1011.7
2017-08-21T08:40:44.054Z,1011.7
2017-08-21T08:41:45.458Z,1011.7
2017-08-21T08:42:46.867Z,1011.7
2017-08-21T08:43:48.265Z,1011.7
2017-08-21T08:44:49.666Z,1011.8
2017-08-21T08:45:51.073Z,1011.8
2017-08-21T08:46:52.477Z,1011.8
2017-08-21T08:47:53.885Z,1011.8
2017-08-21T08:48:55.289Z,1011.8
2017-08-21T08:49:56.695Z,1011.8
2017-08-21T08:50:58.097Z,1011.8
2017-08-21T08:51:59.499Z,1011.8
2017-08-21T08:53:00.902Z,1011.8
2017-08-21T08:54:02.309Z,1011.8
2017-08-21T08:55:03.712Z,1011.8
2017-08-21T08:56:05.114Z,1011.8
2017-08-21T08:57:06.517Z,1011.8
2017-08-21T08:58:07.921Z,1011.8
2017-08-21T08:59:09.326Z,1011.7
2017-08-21T09:00:10.733Z,1011.7
2017-08-21T09:01:12.135Z,1011.7
2017-08-21T09:02:13.543Z,1011.7
2017-08-21T09:03:14.949Z,1011.7
2017-08-21T09:04:16.352Z,1011.6
2017-08-21T09:05:17.757Z,1011.6
2017-08-21T09:06:19.161Z,1011.6
2017-08-21T09:07:20.566Z,1011.6
2017-08-21T09:08:21.976Z,1011.6
2017-08-21T09:09:23.375Z,1011.6
2017-08-21T09:10:24.784Z,1011.6
2017-08-21T09:11:26.184Z,1011.6
2017-08-21T09:12:27.590Z,1011.6
2017-08-21T09:13:28.996Z,1011.6
2017-08-21T09:14:30.401Z,1011.6
2017-08-21T09:15:31.809Z,1011.6
2017-08-21T09:16:33.216Z,1011.6
2017-08-21T09:17:34.621Z,1011.6
2017-08-21T09:18:36.025Z,1011.6
2017-08-21T09:19:37.438Z,1011.6
2017-08-21T09:20:38.836Z,1011.6
2017-08-21T09:21:40.241Z,1011.6
2017-08-21T09:22:41.647Z,1011.6
2017-08-21T09:23:43.055Z,1011.6
2017-08-21T09:24:44.460Z,1011.6
2017-08-21T09:25:45.863Z,1011.7
2017-08-21T09:26:47.266Z,1011.7
2017-08-21T09:27:48.673Z,1011.7
2017-08-21T09:28:50.080Z,1011.7
2017-08-21T09:29:51.483Z,1011.7
2017-08-21T09:30:52.893Z,1011.7
2017-08-21T09:31:54.292Z,1011.7
2017-08-21T09:32:55.695Z,1011.7
2017-08-21T09:33:57.101Z,1011.6
2017-08-21T09:34:58.541Z,1011.6
2017-08-21T09:35:59.948Z,1011.6
2017-08-21T09:37:01.357Z,1011.6
2017-08-21T09:38:02.761Z,1011.6
2017-08-21T09:39:04.165Z,1011.6
2017-08-21T09:40:05.569Z,1011.6
2017-08-21T09:41:06.976Z,1011.6
2017-08-21T09:42:08.381Z,1011.7
2017-08-21T09:43:09.787Z,1011.6
2017-08-21T09:44:11.192Z,1011.6
2017-08-21T09:45:12.599Z,1011.6
2017-08-21T09:46:14.001Z,1011.6
2017-08-21T09:47:15.406Z,1011.6
2017-08-21T09:48:16.811Z,1011.6
2017-08-21T09:49:18.214Z,1011.6
2017-08-21T09:50:19.619Z,1011.6
2017-08-21T09:51:21.023Z,1011.6
2017-08-21T09:52:22.430Z,1011.5
2017-08-21T09:53:23.836Z,1011.5
2017-08-21T09:54:25.241Z,1011.5
2017-08-21T09:55:26.645Z,1011.6
2017-08-21T09:56:28.059Z,1011.6
2017-08-21T09:57:29.456Z,1011.6
2017-08-21T09:58:30.864Z,1011.6
2017-08-21T09:59:32.270Z,1011.6
2017-08-21T10:00:33.630Z,1011.6
2017-08-21T10:01:35.034Z,1011.6
2017-08-21T10:02:36.445Z,1011.5
2017-08-21T10:03:37.889Z,1011.5
2017-08-21T14:41:48.188Z,1009.5
2017-08-21T14:42:49.637Z,1009.5
2017-08-21T14:44:12.132Z,1009.6
2017-08-21T14:45:13.561Z,1009.6
2017-08-21T14:46:35.101Z,1009.5
2017-08-21T14:47:36.517Z,1009.5
2017-08-21T14:48:58.031Z,1009.6
2017-08-21T14:49:59.437Z,1009.5
2017-08-21T14:51:21.954Z,1009.5
2017-08-21T14:52:23.361Z,1009.4
2017-08-21T14:53:45.862Z,1009.5
2017-08-21T14:54:47.266Z,1009.5
2017-08-21T14:56:08.819Z,1009.6
2017-08-21T14:57:10.225Z,1009.6
2017-08-21T14:58:31.749Z,1009.6
2017-08-21T14:59:33.172Z,1009.6
2017-08-21T15:00:55.735Z,1009.5
2017-08-21T15:01:57.131Z,1009.5
2017-08-21T15:03:18.665Z,1009.5
2017-08-21T15:04:20.070Z,1009.5
2017-08-21T15:05:42.800Z,1009.5
2017-08-21T15:06:44.202Z,1009.5
2017-08-21T15:08:06.725Z,1009.5
2017-08-21T15:09:08.129Z,1009.5
2017-08-21T15:10:30.627Z,1009.6
2017-08-21T15:11:32.035Z,1009.6
2017-08-21T15:12:53.575Z,1009.6
2017-08-21T15:13:54.988Z,1009.6
2017-08-21T15:15:17.502Z,1009.6
2017-08-21T15:16:18.911Z,1009.6
2017-08-21T15:17:40.445Z,1009.6
2017-08-21T15:18:41.848Z,1009.5
2017-08-21T15:20:03.372Z,1009.5
2017-08-21T15:21:04.799Z,1009.5
2017-08-21T15:22:27.307Z,1009.5
2017-08-21T15:23:28.713Z,1009.4
2017-08-21T15:24:51.244Z,1009.5
2017-08-21T15:25:52.697Z,1009.5
2017-08-21T15:27:15.202Z,1009.5
2017-08-21T15:28:16.607Z,1009.5
2017-08-21T15:29:38.144Z,1009.5
2017-08-21T15:30:39.552Z,1009.5
2017-08-21T15:32:01.107Z,1009.5
2017-08-21T15:33:02.512Z,1009.5
2017-08-21T15:34:24.051Z,1009.5
2017-08-21T15:35:25.456Z,1009.5
2017-08-21T15:36:46.967Z,1009.5
2017-08-21T15:37:48.371Z,1009.5
2017-08-21T15:39:10.871Z,1009.5
2017-08-21T15:40:12.275Z,1009.6
2017-08-21T15:41:33.813Z,1009.6
2017-08-21T15:42:35.219Z,1009.6
2017-08-21T15:43:57.715Z,1009.6
2017-08-21T15:44:59.120Z,1009.6
2017-08-21T15:46:20.656Z,1009.6
2017-08-21T15:47:22.060Z,1009.6
2017-08-21T15:48:43.567Z,1009.6
2017-08-21T15:49:44.970Z,1009.6
2017-08-21T15:51:07.491Z,1009.6
2017-08-21T15:52:08.897Z,1009.7
2017-08-21T15:53:30.405Z,1009.6
2017-08-21T15:54:31.850Z,1009.7
2017-08-21T15:55:53.396Z,1009.7
2017-08-21T15:56:54.801Z,1009.7
2017-08-21T15:58:16.308Z,1009.7
2017-08-21T15:59:17.710Z,1009.7
2017-08-21T16:00:39.221Z,1009.7
2017-08-21T16:01:40.630Z,1009.8
2017-08-21T16:03:02.156Z,1009.8
2017-08-21T16:04:03.559Z,1009.8
2017-08-21T16:05:25.064Z,1009.8
2017-08-21T16:06:26.470Z,1009.7
2017-08-21T16:07:48.000Z,1009.7
2017-08-21T16:08:49.406Z,1009.7
2017-08-21T16:10:10.912Z,1009.7
2017-08-21T16:11:12.312Z,1009.7
2017-08-21T16:12:35.385Z,1009.7
2017-08-21T16:13:36.789Z,1009.7
2017-08-21T16:14:59.287Z,1009.7
2017-08-21T16:16:00.690Z,1009.7
2017-08-21T16:17:22.197Z,1009.7
2017-08-21T16:18:23.652Z,1009.7
2017-08-21T16:19:46.182Z,1009.7
2017-08-21T16:20:47.584Z,1009.7
2017-08-21T16:22:10.152Z,1009.6
2017-08-21T16:23:11.578Z,1009.6
2017-08-21T16:24:12.983Z,1009.6
2017-08-21T16:25:14.387Z,1009.6
2017-08-21T16:26:15.795Z,1009.6
2017-08-21T16:27:17.203Z,1009.6
2017-08-21T16:28:18.613Z,1009.6
2017-08-21T16:29:20.018Z,1009.6
2017-08-21T16:30:21.421Z,1009.6
2017-08-21T16:31:22.873Z,1009.6
2017-08-21T16:32:24.282Z,1009.6
2017-08-21T16:33:25.683Z,1009.6
2017-08-21T16:34:27.090Z,1009.6
2017-08-21T16:35:28.511Z,1009.6
2017-08-21T16:36:29.921Z,1009.6
2017-08-21T16:37:31.333Z,1009.6
2017-08-21T16:38:32.728Z,1009.6
2017-08-21T16:39:34.131Z,1009.5
2017-08-21T16:40:35.532Z,1009.5
2017-08-21T16:41:36.940Z,1009.5
2017-08-21T16:42:38.389Z,1009.5
2017-08-21T16:43:39.797Z,1009.5
2017-08-21T16:44:41.198Z,1009.5
2017-08-21T16:45:42.603Z,1009.5
2017-08-21T16:46:44.008Z,1009.5
2017-08-21T16:47:45.412Z,1009.5
2017-08-21T16:48:46.819Z,1009.5
2017-08-21T16:49:48.225Z,1009.5
2017-08-21T16:50:49.640Z,1009.5
2017-08-21T16:51:51.052Z,1009.5
2017-08-21T16:52:52.476Z,1009.5
2017-08-21T16:53:53.883Z,1009.4
2017-08-21T16:54:55.288Z,1009.5
2017-08-21T16:55:56.695Z,1009.5
2017-08-21T16:56:58.108Z,1009.4
2017-08-21T16:57:59.514Z,1009.4
2017-08-21T16:59:00.920Z,1009.4
2017-08-21T17:00:02.379Z,1009.3
2017-08-21T17:01:03.792Z,1009.4
2017-08-21T17:02:05.203Z,1009.3
2017-08-21T17:03:06.607Z,1009.3
2017-08-21T17:04:08.056Z,1009.3
2017-08-21T17:05:09.494Z,1009.3
2017-08-21T17:06:10.892Z,1009.4
2017-08-21T17:07:12.297Z,1009.4
2017-08-21T17:08:13.815Z,1009.4
2017-08-21T17:09:15.273Z,1009.4
2017-08-21T17:10:16.675Z,1009.3
2017-08-21T17:11:18.086Z,1009.3
2017-08-21T17:12:19.533Z,1009.3
2017-08-21T17:13:20.952Z,1009.3
2017-08-21T17:14:22.354Z,1009.3
2017-08-21T17:15:23.758Z,1009.3
2017-08-21T17:16:25.166Z,1009.3
2017-08-21T17:17:26.569Z,1009.3
2017-08-21T17:18:27.974Z,1009.2
2017-08-21T17:19:29.378Z,1009.2
2017-08-21T17:20:30.782Z,1009.3
2017-08-21T17:21:32.185Z,1009.3
2017-08-21T17:22:33.587Z,1009.3
2017-08-21T17:23:34.986Z,1009.3
2017-08-21T17:24:36.398Z,1009.3
2017-08-21T17:25:37.813Z,1009.3
2017-08-21T17:26:39.220Z,1009.3
2017-08-21T17:27:40.621Z,1009.3
2017-08-21T17:28:42.037Z,1009.3
2017-08-21T17:29:43.439Z,1009.3
2017-08-21T17:30:44.841Z,1009.3
2017-08-21T17:31:46.250Z,1009.3
2017-08-21T17:32:47.721Z,1009.3
2017-08-21T17:33:49.128Z,1009.3
2017-08-21T17:34:50.528Z,1009.3
2017-08-21T17:35:51.930Z,1009.3
2017-08-21T17:36:53.331Z,1009.3
2017-08-21T17:37:54.734Z,1009.3